createdAt,value
2023-05-14T00:01:01.085Z,97.29
2023-05-14T00:03:29.002Z,96.84
2023-05-14T00:05:56.929Z,96.47
2023-05-14T00:08:24.811Z,95.88
2023-05-14T00:10:53.335Z,96.60
2023-05-14T00:13:21.152Z,97.02
2023-05-14T00:15:49.038Z,96.33
2023-05-14T00:18:18.254Z,95.79
2023-05-14T00:20:46.189Z,95.87
2023-05-14T00:23:14.056Z,96.36
2023-05-14T00:25:41.949Z,95.52
2023-05-14T00:28:09.860Z,96.20
2023-05-14T00:30:37.709Z,95.72
2023-05-14T00:33:05.588Z,96.23
2023-05-14T00:35:35.344Z,95.46
2023-05-14T00:38:03.170Z,96.30
2023-05-14T00:40:31.181Z,96.16
2023-05-14T00:42:59.050Z,96.24
2023-05-14T00:45:27.073Z,95.98
2023-05-14T00:47:55.571Z,96.82
2023-05-14T00:50:24.105Z,96.00
2023-05-14T00:52:53.869Z,96.32
2023-05-14T00:55:22.797Z,95.75
2023-05-14T00:57:51.969Z,95.16
2023-05-14T01:00:20.230Z,95.50
2023-05-14T01:02:48.239Z,95.03
2023-05-14T01:05:16.431Z,95.97
2023-05-14T01:07:55.463Z,95.95
2023-05-14T01:10:30.032Z,95.72
2023-05-14T01:13:05.129Z,96.01
2023-05-14T01:15:34.496Z,95.25
2023-05-14T01:18:05.614Z,95.75
2023-05-14T01:20:33.665Z,96.17
2023-05-14T01:23:02.924Z,95.89
2023-05-14T01:25:32.266Z,95.78
2023-05-14T01:28:07.559Z,95.51
2023-05-14T01:30:38.474Z,96.25
2023-05-14T01:33:12.022Z,96.32
2023-05-14T01:35:41.074Z,96.90
2023-05-14T01:38:12.557Z,97.00
2023-05-14T01:40:41.219Z,97.30
2023-05-14T01:43:09.532Z,97.38
2023-05-14T01:45:38.120Z,96.78
2023-05-14T01:48:06.584Z,97.12
2023-05-14T01:50:34.602Z,97.44
2023-05-14T01:53:02.508Z,97.37
2023-05-14T01:55:31.796Z,96.69
2023-05-14T01:57:59.858Z,95.84
2023-05-14T02:00:28.246Z,95.54
2023-05-14T02:02:56.183Z,95.85
2023-05-14T02:05:24.561Z,95.45
2023-05-14T02:07:54.868Z,95.47
2023-05-14T02:10:22.946Z,95.11
2023-05-14T02:12:52.332Z,94.99
2023-05-14T02:15:20.152Z,95.42
2023-05-14T02:17:48.514Z,96.21
2023-05-14T02:20:16.564Z,95.75
2023-05-14T02:22:46.113Z,95.89
2023-05-14T02:25:14.108Z,96.14
2023-05-14T02:27:41.991Z,96.18
2023-05-14T02:30:12.644Z,96.44
2023-05-14T02:32:40.616Z,96.16
2023-05-14T02:35:09.485Z,96.42
2023-05-14T02:37:38.368Z,96.03
2023-05-14T02:40:08.041Z,96.70
2023-05-14T02:42:36.044Z,96.29
2023-05-14T02:45:03.915Z,96.77
2023-05-14T02:47:33.178Z,96.72
2023-05-14T02:50:01.001Z,97.00
2023-05-14T02:52:28.822Z,96.75
2023-05-14T02:54:56.713Z,97.06
2023-05-14T02:57:24.745Z,97.18
2023-05-14T02:59:52.563Z,97.40
2023-05-14T03:02:21.344Z,97.94
2023-05-14T03:04:51.514Z,97.70
2023-05-14T03:07:19.308Z,97.83
2023-05-14T03:09:47.164Z,97.91
2023-05-14T03:12:15.147Z,97.61
2023-05-14T03:14:43.004Z,97.89
2023-05-14T03:17:11.577Z,97.95
2023-05-14T03:19:40.568Z,97.65
2023-05-14T03:22:09.990Z,98.10
2023-05-14T03:24:40.297Z,98.24
2023-05-14T03:27:08.237Z,97.99
2023-05-14T03:29:36.214Z,98.12
2023-05-14T03:32:04.549Z,98.45
2023-05-14T03:34:32.421Z,97.30
2023-05-14T03:37:00.276Z,98.23
2023-05-14T03:39:29.470Z,98.56
2023-05-14T03:41:58.913Z,98.16
2023-05-14T03:44:26.996Z,97.94
2023-05-14T03:46:54.824Z,98.08
2023-05-14T03:49:23.117Z,98.03
2023-05-14T03:51:51.686Z,97.95
2023-05-14T03:54:19.646Z,98.10
2023-05-14T03:56:48.995Z,98.01
2023-05-14T03:59:16.861Z,97.90
2023-05-14T04:01:45.503Z,97.49
2023-05-14T04:04:13.449Z,97.98
2023-05-14T04:06:41.411Z,97.94
2023-05-14T04:09:10.874Z,98.29
2023-05-14T04:11:38.799Z,97.61
2023-05-14T04:14:08.398Z,98.19
2023-05-14T04:16:36.364Z,98.39
2023-05-14T04:19:04.947Z,98.41
2023-05-14T04:21:32.931Z,98.04
2023-05-14T04:24:00.784Z,97.80
2023-05-14T04:26:28.598Z,98.02
2023-05-14T04:28:56.582Z,97.94
2023-05-14T04:31:26.090Z,98.59
2023-05-14T04:33:54.054Z,98.08
2023-05-14T04:36:21.994Z,97.71
2023-05-14T04:38:49.910Z,97.82
2023-05-14T04:41:17.711Z,97.36
2023-05-14T04:43:46.177Z,97.68
2023-05-14T04:46:14.136Z,98.15
2023-05-14T04:48:43.495Z,99.03
2023-05-14T04:51:11.560Z,99.01
2023-05-14T04:53:39.508Z,98.53
2023-05-14T04:56:07.810Z,98.22
2023-05-14T04:58:35.659Z,97.99
2023-05-14T05:01:07.396Z,98.46
2023-05-14T05:03:35.406Z,98.73
2023-05-14T05:06:04.957Z,98.30
2023-05-14T05:08:32.866Z,98.40
2023-05-14T05:11:00.771Z,97.78
2023-05-14T05:13:28.567Z,98.04
2023-05-14T05:15:56.508Z,98.35
2023-05-14T05:18:24.530Z,98.42
2023-05-14T05:20:52.477Z,98.60
2023-05-14T05:23:21.951Z,98.74
2023-05-14T05:25:50.501Z,98.76
2023-05-14T05:28:18.435Z,98.80
2023-05-14T05:30:46.312Z,97.72
2023-05-14T05:33:15.382Z,97.96
2023-05-14T05:35:44.546Z,97.63
2023-05-14T05:38:12.438Z,97.73
2023-05-14T05:40:41.698Z,96.98
2023-05-14T05:43:09.563Z,97.30
2023-05-14T05:45:37.387Z,97.15
2023-05-14T05:48:05.751Z,97.68
2023-05-14T05:50:33.591Z,97.98
2023-05-14T05:53:01.565Z,98.20
2023-05-14T05:55:30.312Z,98.06
2023-05-14T05:58:00.881Z,97.95
2023-05-14T06:00:28.878Z,97.91
2023-05-14T06:02:56.969Z,97.83
2023-05-14T06:05:24.954Z,98.17
2023-05-14T06:07:53.403Z,97.80
2023-05-14T06:10:21.460Z,97.31
2023-05-14T06:12:49.299Z,97.36
2023-05-14T06:15:19.415Z,97.40
2023-05-14T06:17:47.459Z,98.29
2023-05-14T06:20:15.451Z,97.78
2023-05-14T06:22:43.386Z,97.33
2023-05-14T06:25:12.332Z,97.36
2023-05-14T06:27:40.222Z,97.88
2023-05-14T06:30:09.185Z,97.79
2023-05-14T06:32:38.666Z,98.26
2023-05-14T06:35:07.614Z,97.29
2023-05-14T06:37:35.714Z,97.29
2023-05-14T06:40:03.856Z,97.76
2023-05-14T06:42:31.810Z,96.58
2023-05-14T06:44:59.915Z,96.44
2023-05-14T06:47:28.099Z,95.69
2023-05-14T06:49:58.908Z,95.45
2023-05-14T06:52:27.441Z,94.91
2023-05-14T06:54:55.259Z,94.58
2023-05-14T06:57:23.829Z,94.86
2023-05-14T06:59:51.961Z,94.26
2023-05-14T07:02:19.890Z,93.90
2023-05-14T07:04:48.129Z,94.63
2023-05-14T07:07:20.671Z,94.92
2023-05-14T07:09:48.798Z,94.87
2023-05-14T07:12:16.769Z,95.29
2023-05-14T07:14:44.687Z,95.08
2023-05-14T07:17:12.719Z,95.07
2023-05-14T07:19:40.950Z,94.73
2023-05-14T07:22:08.749Z,94.62
2023-05-14T07:24:37.950Z,93.98
2023-05-14T07:27:06.468Z,93.95
2023-05-14T07:29:35.065Z,94.10
2023-05-14T07:32:02.923Z,94.31
2023-05-14T07:34:30.871Z,94.66
2023-05-14T07:36:58.827Z,94.30
2023-05-14T07:39:26.620Z,94.76
2023-05-14T07:41:55.899Z,93.93
2023-05-14T07:44:23.746Z,94.08
2023-05-14T07:46:51.696Z,94.12
2023-05-14T07:49:19.535Z,93.55
2023-05-14T07:51:47.369Z,93.43
2023-05-14T07:54:15.174Z,93.07
2023-05-14T07:56:42.997Z,92.54
2023-05-14T07:59:12.245Z,92.33
2023-05-14T08:01:40.122Z,92.02
2023-05-14T08:04:08.146Z,92.04
2023-05-14T08:06:36.099Z,91.91
2023-05-14T08:09:05.374Z,91.91
2023-05-14T08:11:33.221Z,92.11
2023-05-14T08:14:01.063Z,91.60
2023-05-14T08:16:30.274Z,90.99
2023-05-14T08:18:58.345Z,90.80
2023-05-14T08:21:26.329Z,90.21
2023-05-14T08:23:54.370Z,90.01
2023-05-14T08:26:22.922Z,89.67
2023-05-14T08:28:50.923Z,89.94
2023-05-14T08:31:18.940Z,88.54
2023-05-14T08:33:48.276Z,86.40
2023-05-14T08:36:16.362Z,86.05
2023-05-14T08:38:45.382Z,86.52
2023-05-14T08:41:16.156Z,85.77
2023-05-14T08:43:50.264Z,84.81
2023-05-14T08:46:19.084Z,85.22
2023-05-14T08:48:52.886Z,83.67
2023-05-14T08:51:21.007Z,84.33
2023-05-14T08:53:49.154Z,84.52
2023-05-14T08:56:20.203Z,84.23
2023-05-14T08:58:48.176Z,83.97
2023-05-14T09:01:16.107Z,84.37
2023-05-14T09:03:45.302Z,84.52
2023-05-14T09:06:16.782Z,83.98
2023-05-14T09:08:45.103Z,83.52
2023-05-14T09:11:13.526Z,85.21
2023-05-14T09:13:41.540Z,79.72
2023-05-14T09:16:09.513Z,80.36
2023-05-14T09:18:38.183Z,77.19
2023-05-14T09:21:06.377Z,77.43
2023-05-14T09:23:35.772Z,76.78
2023-05-14T09:26:06.601Z,75.37
2023-05-14T09:28:34.571Z,74.55
2023-05-14T09:31:03.937Z,75.13
2023-05-14T09:33:32.924Z,74.60
2023-05-14T09:36:01.468Z,75.73
2023-05-14T09:38:30.770Z,75.90
2023-05-14T09:41:00.845Z,74.42
2023-05-14T09:43:28.819Z,73.74
2023-05-14T09:45:56.823Z,72.94
2023-05-14T09:48:24.865Z,75.11
2023-05-14T09:50:52.945Z,75.43
2023-05-14T09:53:21.043Z,75.74
2023-05-14T09:55:49.324Z,75.11
2023-05-14T09:58:18.978Z,75.53
2023-05-14T10:00:48.298Z,75.79
2023-05-14T10:03:19.614Z,75.70
2023-05-14T10:05:50.984Z,75.91
2023-05-14T10:08:25.407Z,75.31
2023-05-14T10:10:55.686Z,75.85
2023-05-14T10:13:28.977Z,74.87
2023-05-14T10:16:02.361Z,75.54
2023-05-14T10:18:32.879Z,74.38
2023-05-14T10:21:06.783Z,70.36
2023-05-14T10:23:37.773Z,71.88
2023-05-14T10:26:06.932Z,69.53
2023-05-14T10:28:36.770Z,70.87
2023-05-14T10:31:04.863Z,71.70
2023-05-14T10:33:48.141Z,70.57
2023-05-14T10:36:16.133Z,70.94
2023-05-14T10:38:44.309Z,72.91
2023-05-14T10:41:15.073Z,72.03
2023-05-14T10:43:44.976Z,71.68
2023-05-14T10:46:15.162Z,72.47
2023-05-14T10:48:45.312Z,69.83
2023-05-14T10:51:14.038Z,70.36
2023-05-14T10:53:43.529Z,70.43
2023-05-14T10:56:12.861Z,70.95
2023-05-14T10:58:43.359Z,71.10
2023-05-14T11:01:14.176Z,71.27
2023-05-14T11:03:45.069Z,68.54
2023-05-14T11:06:16.143Z,69.35
2023-05-14T11:08:46.552Z,67.81
2023-05-14T11:11:15.189Z,68.00
2023-05-14T11:13:43.992Z,67.53
2023-05-14T11:16:23.469Z,69.12
2023-05-14T11:19:02.853Z,67.80
2023-05-14T11:21:31.832Z,66.29
2023-05-14T11:24:01.482Z,65.86
2023-05-14T11:26:29.598Z,67.34
2023-05-14T11:28:57.852Z,67.90
2023-05-14T11:31:27.847Z,67.22
2023-05-14T11:33:56.476Z,68.13
2023-05-14T11:36:24.500Z,67.98
2023-05-14T11:38:52.851Z,66.76
2023-05-14T11:41:23.075Z,67.25
2023-05-14T11:43:51.541Z,68.26
2023-05-14T11:46:19.973Z,68.90
2023-05-14T11:48:49.523Z,68.46
2023-05-14T11:51:17.567Z,69.11
2023-05-14T11:53:46.748Z,68.60
2023-05-14T11:56:14.828Z,67.91
2023-05-14T11:58:48.514Z,68.68
2023-05-14T12:01:16.862Z,68.06
2023-05-14T12:03:44.878Z,68.78
2023-05-14T12:06:14.336Z,68.51
2023-05-14T12:08:42.373Z,68.83
2023-05-14T12:11:10.560Z,67.73
2023-05-14T12:13:38.534Z,67.65
2023-05-14T12:16:07.385Z,65.81
2023-05-14T12:18:35.650Z,66.78
2023-05-14T12:21:05.094Z,65.41
2023-05-14T12:23:34.583Z,65.90
2023-05-14T12:26:03.648Z,65.27
2023-05-14T12:28:32.336Z,65.66
2023-05-14T12:31:00.928Z,66.33
2023-05-14T12:33:29.071Z,63.14
2023-05-14T12:36:07.411Z,63.61
2023-05-14T12:38:49.938Z,63.44
2023-05-14T12:41:18.486Z,63.54
2023-05-14T12:43:49.884Z,62.75
2023-05-14T12:46:18.182Z,63.11
2023-05-14T12:48:46.447Z,63.58
2023-05-14T12:51:14.540Z,62.50
2023-05-14T12:53:42.876Z,63.02
2023-05-14T12:56:12.727Z,63.74
2023-05-14T12:58:41.092Z,62.21
2023-05-14T13:01:09.136Z,62.64
2023-05-14T13:03:37.162Z,63.36
2023-05-14T13:06:05.413Z,64.17
2023-05-14T13:08:33.440Z,65.10
2023-05-14T13:11:01.463Z,65.29
2023-05-14T13:13:30.845Z,66.84
2023-05-14T13:15:58.879Z,66.79
2023-05-14T13:18:27.293Z,67.43
2023-05-14T13:20:55.322Z,70.19
2023-05-14T13:23:23.403Z,69.65
2023-05-14T13:25:51.547Z,69.23
2023-05-14T13:28:19.364Z,69.05
2023-05-14T13:31:09.045Z,69.77
2023-05-14T13:33:37.779Z,69.44
2023-05-14T13:36:06.377Z,69.01
2023-05-14T13:38:34.227Z,68.75
2023-05-14T13:41:03.008Z,69.27
2023-05-14T13:43:31.784Z,69.43
2023-05-14T13:46:01.794Z,69.15
2023-05-14T13:48:31.007Z,66.90
2023-05-14T13:50:59.283Z,65.59
2023-05-14T13:53:27.924Z,65.01
2023-05-14T13:55:58.349Z,64.94
2023-05-14T13:58:27.575Z,63.96
2023-05-14T14:00:56.648Z,63.58
2023-05-14T14:03:25.888Z,62.78
2023-05-14T14:05:53.738Z,62.97
2023-05-14T14:08:23.895Z,63.43
2023-05-14T14:10:54.444Z,63.62
2023-05-14T14:13:22.769Z,63.14
2023-05-14T14:15:51.282Z,63.51
2023-05-14T14:18:19.192Z,64.61
2023-05-14T14:20:48.589Z,63.79
2023-05-14T14:23:16.506Z,62.33
2023-05-14T14:25:44.420Z,62.12
2023-05-14T14:28:12.314Z,61.76
2023-05-14T14:30:40.265Z,62.02
2023-05-14T14:33:08.290Z,61.95
2023-05-14T14:35:37.374Z,61.22
2023-05-14T14:38:06.657Z,61.84
2023-05-14T14:40:34.768Z,60.15
2023-05-14T14:43:03.078Z,59.35
2023-05-14T14:45:31.143Z,58.94
2023-05-14T14:48:23.558Z,60.17
2023-05-14T14:50:51.929Z,61.07
2023-05-14T14:53:21.273Z,60.03
2023-05-14T14:55:49.340Z,60.23
2023-05-14T14:58:17.723Z,59.71
2023-05-14T15:00:45.706Z,60.03
2023-05-14T15:03:15.054Z,60.54
2023-05-14T15:05:43.517Z,60.67
2023-05-14T15:08:11.509Z,60.78
2023-05-14T15:10:41.593Z,59.80
2023-05-14T15:13:11.129Z,60.22
2023-05-14T15:15:39.034Z,59.90
2023-05-14T15:18:07.048Z,59.92
2023-05-14T15:20:35.010Z,58.85
2023-05-14T15:23:03.213Z,58.33
2023-05-14T15:25:31.633Z,57.39
2023-05-14T15:28:00.824Z,57.28
2023-05-14T15:30:28.745Z,57.70
2023-05-14T15:32:56.790Z,56.52
2023-05-14T15:35:25.172Z,56.54
2023-05-14T15:37:56.502Z,55.46
2023-05-14T15:40:24.618Z,56.24
2023-05-14T15:42:52.689Z,55.09
2023-05-14T15:45:22.200Z,56.22
2023-05-14T15:47:50.083Z,56.13
2023-05-14T15:50:18.018Z,55.58
2023-05-14T15:52:46.310Z,53.86
2023-05-14T15:55:14.167Z,54.24
2023-05-14T15:57:42.042Z,54.55
2023-05-14T16:00:11.125Z,54.06
2023-05-14T16:02:40.853Z,54.96
2023-05-14T16:05:09.457Z,53.76
2023-05-14T16:07:37.640Z,53.94
2023-05-14T16:10:06.545Z,54.31
2023-05-14T16:12:34.516Z,54.39
2023-05-14T16:15:02.475Z,54.20
2023-05-14T16:17:31.766Z,54.05
2023-05-14T16:20:01.995Z,52.16
2023-05-14T16:22:31.927Z,53.37
2023-05-14T16:25:02.584Z,54.54
2023-05-14T16:27:31.401Z,55.10
2023-05-14T16:29:59.336Z,53.81
2023-05-14T16:32:27.707Z,54.00
2023-05-14T16:34:56.487Z,53.13
2023-05-14T16:37:25.817Z,53.95
2023-05-14T16:39:53.664Z,54.98
2023-05-14T16:42:21.578Z,56.74
2023-05-14T16:44:49.444Z,58.31
2023-05-14T16:47:17.324Z,58.63
2023-05-14T16:49:45.338Z,58.55
2023-05-14T16:52:13.470Z,58.37
2023-05-14T16:54:42.708Z,58.88
2023-05-14T16:57:10.602Z,57.82
2023-05-14T16:59:38.411Z,57.62
2023-05-14T17:02:06.307Z,57.72
2023-05-14T17:04:38.690Z,58.46
2023-05-14T17:07:06.840Z,58.09
2023-05-14T17:09:34.671Z,59.48
2023-05-14T17:12:04.193Z,58.61
2023-05-14T17:14:32.110Z,58.36
2023-05-14T17:16:59.989Z,59.09
2023-05-14T17:19:27.943Z,59.11
2023-05-14T17:21:55.839Z,59.05
2023-05-14T17:24:23.819Z,59.52
2023-05-14T17:26:51.793Z,59.90
2023-05-14T17:29:21.341Z,59.72
2023-05-14T17:31:49.278Z,60.26
2023-05-14T17:34:17.729Z,60.37
2023-05-14T17:36:47.125Z,60.96
2023-05-14T17:39:14.969Z,61.23
2023-05-14T17:41:43.147Z,61.33
2023-05-14T17:44:12.888Z,61.84
2023-05-14T17:46:44.760Z,62.23
2023-05-14T17:49:12.966Z,62.67
2023-05-14T17:51:41.006Z,63.03
2023-05-14T17:54:09.087Z,64.22
2023-05-14T17:56:37.178Z,68.78
2023-05-14T17:59:05.053Z,67.83
2023-05-14T18:01:33.032Z,68.32
2023-05-14T18:04:02.546Z,70.76
2023-05-14T18:06:30.938Z,69.18
2023-05-14T18:08:58.780Z,69.10
2023-05-14T18:11:32.747Z,69.57
2023-05-14T18:14:00.721Z,68.29
2023-05-14T18:16:29.006Z,68.85
2023-05-14T18:18:57.218Z,69.42
2023-05-14T18:21:26.461Z,70.87
2023-05-14T18:23:54.358Z,70.94
2023-05-14T18:26:23.166Z,70.61
2023-05-14T18:28:51.092Z,70.81
2023-05-14T18:31:19.125Z,69.78
2023-05-14T18:33:47.200Z,71.15
2023-05-14T18:36:15.076Z,70.79
2023-05-14T18:38:44.298Z,70.27
2023-05-14T18:41:12.218Z,71.86
2023-05-14T18:43:40.079Z,72.75
2023-05-14T18:46:08.107Z,71.74
2023-05-14T18:48:36.398Z,72.10
2023-05-14T18:51:05.370Z,72.49
2023-05-14T18:53:33.318Z,71.90
2023-05-14T18:56:02.616Z,73.89
2023-05-14T18:58:30.499Z,73.84
2023-05-14T19:00:59.053Z,74.38
2023-05-14T19:03:27.107Z,75.39
2023-05-14T19:05:55.080Z,75.62
2023-05-14T19:08:22.973Z,75.04
2023-05-14T19:10:50.941Z,75.29
2023-05-14T19:13:20.289Z,77.10
2023-05-14T19:15:48.695Z,77.92
2023-05-14T19:18:17.682Z,80.79
2023-05-14T19:20:46.602Z,82.25
2023-05-14T19:23:14.498Z,84.10
2023-05-14T19:25:42.432Z,84.45
2023-05-14T19:28:10.457Z,85.91
2023-05-14T19:30:39.690Z,85.07
2023-05-14T19:33:07.534Z,82.40
2023-05-14T19:35:35.525Z,81.75
2023-05-14T19:38:03.409Z,80.70
2023-05-14T19:40:31.358Z,81.15
2023-05-14T19:42:59.464Z,82.01
2023-05-14T19:45:27.469Z,83.54
2023-05-14T19:47:56.983Z,84.87
2023-05-14T19:50:24.931Z,85.49
2023-05-14T19:52:52.847Z,85.92
2023-05-14T19:55:20.711Z,86.86
2023-05-14T19:57:48.589Z,86.78
2023-05-14T20:00:17.033Z,85.70
2023-05-14T20:02:47.773Z,84.96
2023-05-14T20:05:17.360Z,83.92
2023-05-14T20:07:47.114Z,83.99
2023-05-14T20:10:15.607Z,84.02
2023-05-14T20:12:43.564Z,84.08
2023-05-14T20:15:12.055Z,84.89
2023-05-14T20:17:39.959Z,87.26
2023-05-14T20:20:09.965Z,87.64
2023-05-14T20:22:40.027Z,87.08
2023-05-14T20:25:08.930Z,88.05
2023-05-14T20:27:37.115Z,88.26
2023-05-14T20:30:06.671Z,88.64
2023-05-14T20:32:34.627Z,87.95
2023-05-14T20:35:02.917Z,88.40
2023-05-14T20:37:32.382Z,88.14
2023-05-14T20:40:02.339Z,88.27
2023-05-14T20:42:30.281Z,87.71
2023-05-14T20:44:58.142Z,88.57
2023-05-14T20:47:28.952Z,88.04
2023-05-14T20:49:56.917Z,88.66
2023-05-14T20:52:24.830Z,88.39
2023-05-14T20:54:52.784Z,89.12
2023-05-14T20:57:22.558Z,88.59
2023-05-14T20:59:50.465Z,88.09
2023-05-14T21:02:18.532Z,88.09
2023-05-14T21:04:46.937Z,88.11
2023-05-14T21:07:14.768Z,88.52
2023-05-14T21:09:43.936Z,88.83
2023-05-14T21:12:12.037Z,88.57
2023-05-14T21:14:42.754Z,88.80
2023-05-14T21:17:10.638Z,88.74
2023-05-14T21:19:38.452Z,88.98
2023-05-14T21:22:07.406Z,88.78
2023-05-14T21:24:35.401Z,88.84
2023-05-14T21:27:03.340Z,88.74
2023-05-14T21:29:31.251Z,88.83
2023-05-14T21:32:00.631Z,88.95
2023-05-14T21:34:29.794Z,89.15
2023-05-14T21:36:59.206Z,89.15
2023-05-14T21:39:27.068Z,89.15
2023-05-14T21:41:54.989Z,88.98
2023-05-14T21:44:23.033Z,89.42
2023-05-14T21:46:50.905Z,89.78
2023-05-14T21:49:20.131Z,88.86
2023-05-14T21:51:52.830Z,88.76
2023-05-14T21:54:20.934Z,89.83
2023-05-14T21:56:49.146Z,89.58
2023-05-14T21:59:17.480Z,89.70
2023-05-14T22:02:05.316Z,89.60
2023-05-14T22:04:35.261Z,89.93
2023-05-14T22:07:04.048Z,89.75
2023-05-14T22:09:32.059Z,89.85
2023-05-14T22:12:00.803Z,90.34
2023-05-14T22:14:28.785Z,90.53
2023-05-14T22:16:57.728Z,90.35
2023-05-14T22:19:26.820Z,89.55
2023-05-14T22:21:56.107Z,89.73
2023-05-14T22:24:24.015Z,89.57
2023-05-14T22:26:51.970Z,89.65
2023-05-14T22:29:19.797Z,89.98
2023-05-14T22:31:47.765Z,89.41
2023-05-14T22:34:16.077Z,89.60
2023-05-14T22:36:44.028Z,89.83
2023-05-14T22:39:13.561Z,89.67
2023-05-14T22:41:41.659Z,89.40
2023-05-14T22:44:09.755Z,88.91
2023-05-14T22:46:38.130Z,89.32
2023-05-14T22:49:06.036Z,89.53
2023-05-14T22:51:33.913Z,90.10
2023-05-14T22:54:01.739Z,90.40
2023-05-14T22:56:31.137Z,90.06
2023-05-14T22:59:00.233Z,90.36
2023-05-14T23:01:28.459Z,90.19
2023-05-14T23:03:56.585Z,89.81
2023-05-14T23:06:25.562Z,90.44
2023-05-14T23:08:53.438Z,90.58
2023-05-14T23:11:21.377Z,90.63
2023-05-14T23:13:50.604Z,90.96
2023-05-14T23:16:18.663Z,91.29
2023-05-14T23:18:46.772Z,90.91
2023-05-14T23:21:15.036Z,89.92
2023-05-14T23:23:42.962Z,90.55
2023-05-14T23:26:10.870Z,89.96
2023-05-14T23:28:38.739Z,90.42
2023-05-14T23:31:08.185Z,90.36
2023-05-14T23:33:36.140Z,90.47
2023-05-14T23:36:05.096Z,90.35
2023-05-14T23:38:33.172Z,90.95
2023-05-14T23:41:01.127Z,90.38
2023-05-14T23:43:28.966Z,90.71
2023-05-14T23:45:57.101Z,90.83
2023-05-14T23:48:26.697Z,90.67
2023-05-14T23:50:54.750Z,90.98
2023-05-14T23:53:22.576Z,90.71
2023-05-14T23:55:50.540Z,90.74
2023-05-14T23:58:18.467Z,90.71
